sensor_id;sensor_type;location;lat;lon;timestamp;P1;durP1;ratioP1;P2;durP2;ratioP2
73840;SDS011;62183;49.006;12.102;2022-09-09T00:01:18;6.18;;;5.22;;
73840;SDS011;62183;49.006;12.102;2022-09-09T00:06:32;5.53;;;5.00;;
73840;SDS011;62183;49.006;12.102;2022-09-09T00:11:28;5.65;;;5.13;;
73840;SDS011;62183;49.006;12.102;2022-09-09T00:13:55;7.30;;;5.38;;
73840;SDS011;62183;49.006;12.102;2022-09-09T00:18:50;6.93;;;5.90;;
73840;SDS011;62183;49.006;12.102;2022-09-09T00:21:17;7.50;;;5.75;;
73840;SDS011;62183;49.006;12.102;2022-09-09T00:23:44;7.07;;;6.38;;
73840;SDS011;62183;49.006;12.102;2022-09-09T00:31:22;9.27;;;7.13;;
73840;SDS011;62183;49.006;12.102;2022-09-09T00:33:49;9.77;;;6.97;;
73840;SDS011;62183;49.006;12.102;2022-09-09T00:36:17;10.32;;;6.53;;
73840;SDS011;62183;49.006;12.102;2022-09-09T00:38:45;9.40;;;6.95;;
73840;SDS011;62183;49.006;12.102;2022-09-09T00:46:53;8.07;;;6.55;;
73840;SDS011;62183;49.006;12.102;2022-09-09T00:49:34;9.05;;;7.07;;
73840;SDS011;62183;49.006;12.102;2022-09-09T00:54:50;11.25;;;7.82;;
73840;SDS011;62183;49.006;12.102;2022-09-09T00:57:31;10.73;;;7.93;;
73840;SDS011;62183;49.006;12.102;2022-09-09T01:02:28;15.17;;;9.27;;
73840;SDS011;62183;49.006;12.102;2022-09-09T01:04:57;12.35;;;8.77;;
73840;SDS011;62183;49.006;12.102;2022-09-09T01:07:27;15.52;;;9.45;;
73840;SDS011;62183;49.006;12.102;2022-09-09T01:12:23;14.63;;;10.17;;
73840;SDS011;62183;49.006;12.102;2022-09-09T01:14:49;13.90;;;10.55;;
73840;SDS011;62183;49.006;12.102;2022-09-09T01:17:30;13.02;;;9.05;;
73840;SDS011;62183;49.006;12.102;2022-09-09T01:20:08;13.18;;;9.38;;
73840;SDS011;62183;49.006;12.102;2022-09-09T01:25:21;11.98;;;9.18;;
73840;SDS011;62183;49.006;12.102;2022-09-09T01:27:48;13.73;;;9.45;;
73840;SDS011;62183;49.006;12.102;2022-09-09T01:30:14;10.15;;;7.55;;
73840;SDS011;62183;49.006;12.102;2022-09-09T01:32:44;13.40;;;10.00;;
73840;SDS011;62183;49.006;12.102;2022-09-09T01:37:46;15.98;;;10.85;;
73840;SDS011;62183;49.006;12.102;2022-09-09T01:40:12;14.20;;;9.45;;
73840;SDS011;62183;49.006;12.102;2022-09-09T01:42:37;13.07;;;9.93;;
73840;SDS011;62183;49.006;12.102;2022-09-09T01:45:02;11.80;;;9.83;;
73840;SDS011;62183;49.006;12.102;2022-09-09T01:47:28;12.85;;;9.82;;
73840;SDS011;62183;49.006;12.102;2022-09-09T01:49:53;11.23;;;8.70;;
73840;SDS011;62183;49.006;12.102;2022-09-09T01:52:18;11.40;;;8.53;;
73840;SDS011;62183;49.006;12.102;2022-09-09T01:54:43;13.50;;;9.00;;
73840;SDS011;62183;49.006;12.102;2022-09-09T01:57:11;12.30;;;8.23;;
73840;SDS011;62183;49.006;12.102;2022-09-09T01:59:43;10.27;;;8.60;;
73840;SDS011;62183;49.006;12.102;2022-09-09T02:02:14;13.15;;;8.68;;
73840;SDS011;62183;49.006;12.102;2022-09-09T02:04:47;9.82;;;8.38;;
73840;SDS011;62183;49.006;12.102;2022-09-09T02:07:31;11.18;;;8.18;;
73840;SDS011;62183;49.006;12.102;2022-09-09T02:10:02;14.55;;;10.18;;
73840;SDS011;62183;49.006;12.102;2022-09-09T02:12:28;9.98;;;8.75;;
73840;SDS011;62183;49.006;12.102;2022-09-09T02:15:05;11.05;;;9.10;;
73840;SDS011;62183;49.006;12.102;2022-09-09T02:17:34;11.10;;;8.15;;
73840;SDS011;62183;49.006;12.102;2022-09-09T02:20:07;12.30;;;8.05;;
73840;SDS011;62183;49.006;12.102;2022-09-09T02:22:33;9.88;;;8.63;;
73840;SDS011;62183;49.006;12.102;2022-09-09T02:24:58;10.05;;;8.00;;
73840;SDS011;62183;49.006;12.102;2022-09-09T02:27:24;10.75;;;8.40;;
73840;SDS011;62183;49.006;12.102;2022-09-09T02:29:50;10.13;;;8.73;;
73840;SDS011;62183;49.006;12.102;2022-09-09T02:32:20;11.82;;;9.30;;
73840;SDS011;62183;49.006;12.102;2022-09-09T02:34:52;9.90;;;7.88;;
73840;SDS011;62183;49.006;12.102;2022-09-09T02:37:18;11.27;;;9.27;;
73840;SDS011;62183;49.006;12.102;2022-09-09T02:39:45;11.63;;;8.88;;
73840;SDS011;62183;49.006;12.102;2022-09-09T02:42:11;10.85;;;9.10;;
73840;SDS011;62183;49.006;12.102;2022-09-09T02:44:36;13.93;;;9.10;;
73840;SDS011;62183;49.006;12.102;2022-09-09T02:47:07;10.83;;;8.60;;
73840;SDS011;62183;49.006;12.102;2022-09-09T02:52:05;10.77;;;8.93;;
73840;SDS011;62183;49.006;12.102;2022-09-09T02:54:35;11.57;;;8.95;;
73840;SDS011;62183;49.006;12.102;2022-09-09T02:57:05;10.75;;;8.95;;
73840;SDS011;62183;49.006;12.102;2022-09-09T02:59:32;9.18;;;8.20;;
73840;SDS011;62183;49.006;12.102;2022-09-09T03:01:57;13.45;;;8.93;;
73840;SDS011;62183;49.006;12.102;2022-09-09T03:04:22;8.93;;;7.75;;
73840;SDS011;62183;49.006;12.102;2022-09-09T03:06:47;13.57;;;8.77;;
73840;SDS011;62183;49.006;12.102;2022-09-09T03:09:13;9.80;;;8.80;;
73840;SDS011;62183;49.006;12.102;2022-09-09T03:11:38;10.70;;;8.43;;
73840;SDS011;62183;49.006;12.102;2022-09-09T03:14:03;9.05;;;7.80;;
73840;SDS011;62183;49.006;12.102;2022-09-09T03:16:28;10.15;;;7.78;;
73840;SDS011;62183;49.006;12.102;2022-09-09T03:18:54;13.77;;;8.90;;
73840;SDS011;62183;49.006;12.102;2022-09-09T03:21:19;12.13;;;8.30;;
73840;SDS011;62183;49.006;12.102;2022-09-09T03:23:44;10.67;;;8.60;;
73840;SDS011;62183;49.006;12.102;2022-09-09T03:26:09;9.67;;;8.30;;
73840;SDS011;62183;49.006;12.102;2022-09-09T03:28:34;9.47;;;8.10;;
73840;SDS011;62183;49.006;12.102;2022-09-09T03:31:03;13.10;;;8.90;;
73840;SDS011;62183;49.006;12.102;2022-09-09T03:33:29;13.13;;;9.98;;
73840;SDS011;62183;49.006;12.102;2022-09-09T03:35:54;14.23;;;9.50;;
73840;SDS011;62183;49.006;12.102;2022-09-09T03:38:20;11.43;;;8.95;;
73840;SDS011;62183;49.006;12.102;2022-09-09T03:40:49;10.73;;;9.17;;
73840;SDS011;62183;49.006;12.102;2022-09-09T03:43:14;12.68;;;8.77;;
73840;SDS011;62183;49.006;12.102;2022-09-09T03:45:39;10.93;;;9.17;;
73840;SDS011;62183;49.006;12.102;2022-09-09T03:48:04;11.77;;;9.37;;
73840;SDS011;62183;49.006;12.102;2022-09-09T03:50:29;15.17;;;9.90;;
73840;SDS011;62183;49.006;12.102;2022-09-09T03:52:55;15.50;;;9.47;;
73840;SDS011;62183;49.006;12.102;2022-09-09T03:55:20;12.57;;;9.00;;
73840;SDS011;62183;49.006;12.102;2022-09-09T03:57:45;11.63;;;9.27;;
73840;SDS011;62183;49.006;12.102;2022-09-09T04:00:10;15.47;;;9.97;;
73840;SDS011;62183;49.006;12.102;2022-09-09T04:02:35;10.68;;;9.05;;
73840;SDS011;62183;49.006;12.102;2022-09-09T04:05:01;13.53;;;9.57;;
73840;SDS011;62183;49.006;12.102;2022-09-09T04:07:26;12.37;;;9.10;;
73840;SDS011;62183;49.006;12.102;2022-09-09T04:09:51;12.47;;;9.20;;
73840;SDS011;62183;49.006;12.102;2022-09-09T04:12:16;11.67;;;9.03;;
73840;SDS011;62183;49.006;12.102;2022-09-09T04:14:41;12.30;;;9.30;;
73840;SDS011;62183;49.006;12.102;2022-09-09T04:17:07;11.70;;;9.10;;
73840;SDS011;62183;49.006;12.102;2022-09-09T04:19:32;11.70;;;8.50;;
73840;SDS011;62183;49.006;12.102;2022-09-09T04:21:57;13.45;;;9.40;;
73840;SDS011;62183;49.006;12.102;2022-09-09T04:24:23;10.80;;;7.97;;
73840;SDS011;62183;49.006;12.102;2022-09-09T04:26:48;13.03;;;9.80;;
73840;SDS011;62183;49.006;12.102;2022-09-09T04:29:13;12.37;;;9.17;;
73840;SDS011;62183;49.006;12.102;2022-09-09T04:31:38;12.53;;;9.53;;
73840;SDS011;62183;49.006;12.102;2022-09-09T04:34:03;12.33;;;8.90;;
73840;SDS011;62183;49.006;12.102;2022-09-09T04:36:29;13.60;;;9.37;;
73840;SDS011;62183;49.006;12.102;2022-09-09T04:38:54;13.90;;;9.47;;
73840;SDS011;62183;49.006;12.102;2022-09-09T04:41:19;13.17;;;9.90;;
73840;SDS011;62183;49.006;12.102;2022-09-09T04:43:44;14.73;;;10.23;;
73840;SDS011;62183;49.006;12.102;2022-09-09T04:46:09;11.53;;;8.90;;
73840;SDS011;62183;49.006;12.102;2022-09-09T04:48:34;11.30;;;8.83;;
73840;SDS011;62183;49.006;12.102;2022-09-09T04:51:04;14.63;;;10.60;;
73840;SDS011;62183;49.006;12.102;2022-09-09T04:53:29;14.98;;;10.20;;
73840;SDS011;62183;49.006;12.102;2022-09-09T04:56:04;12.23;;;9.63;;
73840;SDS011;62183;49.006;12.102;2022-09-09T04:58:30;13.45;;;10.45;;
73840;SDS011;62183;49.006;12.102;2022-09-09T05:01:01;13.07;;;10.07;;
73840;SDS011;62183;49.006;12.102;2022-09-09T05:03:27;11.77;;;9.40;;
73840;SDS011;62183;49.006;12.102;2022-09-09T05:05:52;14.43;;;9.50;;
73840;SDS011;62183;49.006;12.102;2022-09-09T05:08:17;13.00;;;9.63;;
73840;SDS011;62183;49.006;12.102;2022-09-09T05:10:42;10.37;;;8.40;;
73840;SDS011;62183;49.006;12.102;2022-09-09T05:13:07;8.90;;;7.43;;
73840;SDS011;62183;49.006;12.102;2022-09-09T05:15:33;9.10;;;8.20;;
73840;SDS011;62183;49.006;12.102;2022-09-09T05:17:58;12.25;;;8.63;;
73840;SDS011;62183;49.006;12.102;2022-09-09T05:20:23;10.10;;;7.30;;
73840;SDS011;62183;49.006;12.102;2022-09-09T05:22:52;8.97;;;7.63;;
73840;SDS011;62183;49.006;12.102;2022-09-09T05:25:17;14.02;;;8.93;;
73840;SDS011;62183;49.006;12.102;2022-09-09T05:27:42;11.97;;;8.63;;
73840;SDS011;62183;49.006;12.102;2022-09-09T05:30:07;10.70;;;8.80;;
73840;SDS011;62183;49.006;12.102;2022-09-09T05:32:33;10.50;;;8.45;;
73840;SDS011;62183;49.006;12.102;2022-09-09T05:34:58;10.20;;;8.30;;
73840;SDS011;62183;49.006;12.102;2022-09-09T05:37:23;15.63;;;8.73;;
73840;SDS011;62183;49.006;12.102;2022-09-09T05:39:48;12.70;;;8.07;;
73840;SDS011;62183;49.006;12.102;2022-09-09T05:42:13;10.53;;;8.33;;
73840;SDS011;62183;49.006;12.102;2022-09-09T05:44:39;9.93;;;8.23;;
73840;SDS011;62183;49.006;12.102;2022-09-09T05:47:04;8.80;;;7.90;;
73840;SDS011;62183;49.006;12.102;2022-09-09T05:49:29;9.40;;;8.27;;
73840;SDS011;62183;49.006;12.102;2022-09-09T05:51:54;9.10;;;7.63;;
73840;SDS011;62183;49.006;12.102;2022-09-09T05:54:20;13.40;;;8.37;;
73840;SDS011;62183;49.006;12.102;2022-09-09T05:56:45;9.88;;;8.25;;
73840;SDS011;62183;49.006;12.102;2022-09-09T05:59:10;9.17;;;7.27;;
73840;SDS011;62183;49.006;12.102;2022-09-09T06:01:36;12.23;;;8.47;;
73840;SDS011;62183;49.006;12.102;2022-09-09T06:04:01;6.68;;;6.07;;
73840;SDS011;62183;49.006;12.102;2022-09-09T06:06:27;8.77;;;7.97;;
73840;SDS011;62183;49.006;12.102;2022-09-09T06:08:56;7.90;;;6.63;;
73840;SDS011;62183;49.006;12.102;2022-09-09T06:11:22;8.90;;;7.68;;
73840;SDS011;62183;49.006;12.102;2022-09-09T06:13:48;8.30;;;7.40;;
73840;SDS011;62183;49.006;12.102;2022-09-09T06:16:14;16.67;;;8.02;;
73840;SDS011;62183;49.006;12.102;2022-09-09T06:18:40;9.65;;;8.35;;
73840;SDS011;62183;49.006;12.102;2022-09-09T06:21:06;8.45;;;7.55;;
73840;SDS011;62183;49.006;12.102;2022-09-09T06:23:32;10.25;;;8.48;;
73840;SDS011;62183;49.006;12.102;2022-09-09T06:26:04;8.27;;;7.32;;
73840;SDS011;62183;49.006;12.102;2022-09-09T06:30:58;7.82;;;6.82;;
73840;SDS011;62183;49.006;12.102;2022-09-09T06:33:24;9.70;;;8.23;;
73840;SDS011;62183;49.006;12.102;2022-09-09T06:35:52;9.53;;;8.43;;
73840;SDS011;62183;49.006;12.102;2022-09-09T06:38:17;9.07;;;8.10;;
73840;SDS011;62183;49.006;12.102;2022-09-09T06:40:42;9.43;;;8.43;;
73840;SDS011;62183;49.006;12.102;2022-09-09T06:43:08;9.77;;;8.43;;
73840;SDS011;62183;49.006;12.102;2022-09-09T06:45:33;9.47;;;8.20;;
73840;SDS011;62183;49.006;12.102;2022-09-09T06:47:58;8.80;;;7.90;;
73840;SDS011;62183;49.006;12.102;2022-09-09T06:50:23;9.27;;;8.30;;
73840;SDS011;62183;49.006;12.102;2022-09-09T06:52:48;12.40;;;9.13;;
73840;SDS011;62183;49.006;12.102;2022-09-09T06:55:14;10.13;;;7.83;;
73840;SDS011;62183;49.006;12.102;2022-09-09T06:57:39;9.10;;;8.10;;
73840;SDS011;62183;49.006;12.102;2022-09-09T07:00:04;9.50;;;8.47;;
73840;SDS011;62183;49.006;12.102;2022-09-09T07:02:30;13.73;;;8.80;;
73840;SDS011;62183;49.006;12.102;2022-09-09T07:04:55;9.07;;;8.17;;
73840;SDS011;62183;49.006;12.102;2022-09-09T07:07:20;10.67;;;8.57;;
73840;SDS011;62183;49.006;12.102;2022-09-09T07:09:45;9.40;;;8.60;;
73840;SDS011;62183;49.006;12.102;2022-09-09T07:12:10;9.60;;;8.80;;
73840;SDS011;62183;49.006;12.102;2022-09-09T07:14:36;10.43;;;9.48;;
73840;SDS011;62183;49.006;12.102;2022-09-09T07:17:02;9.30;;;8.40;;
73840;SDS011;62183;49.006;12.102;2022-09-09T07:19:27;10.07;;;9.27;;
73840;SDS011;62183;49.006;12.102;2022-09-09T07:21:52;10.63;;;9.63;;
73840;SDS011;62183;49.006;12.102;2022-09-09T07:24:17;10.57;;;9.53;;
73840;SDS011;62183;49.006;12.102;2022-09-09T07:26:42;9.63;;;8.80;;
73840;SDS011;62183;49.006;12.102;2022-09-09T07:29:08;10.68;;;9.73;;
73840;SDS011;62183;49.006;12.102;2022-09-09T07:31:34;10.45;;;9.55;;
73840;SDS011;62183;49.006;12.102;2022-09-09T07:34:00;10.15;;;9.35;;
73840;SDS011;62183;49.006;12.102;2022-09-09T07:36:26;10.43;;;9.52;;
73840;SDS011;62183;49.006;12.102;2022-09-09T07:38:53;10.82;;;9.82;;
73840;SDS011;62183;49.006;12.102;2022-09-09T07:41:19;10.25;;;9.27;;
73840;SDS011;62183;49.006;12.102;2022-09-09T07:43:45;10.00;;;9.10;;
73840;SDS011;62183;49.006;12.102;2022-09-09T07:46:11;10.65;;;9.65;;
73840;SDS011;62183;49.006;12.102;2022-09-09T07:48:36;9.40;;;8.60;;
73840;SDS011;62183;49.006;12.102;2022-09-09T07:53:30;9.40;;;8.52;;
73840;SDS011;62183;49.006;12.102;2022-09-09T07:55:55;8.93;;;8.23;;
73840;SDS011;62183;49.006;12.102;2022-09-09T07:58:20;9.60;;;8.80;;
73840;SDS011;62183;49.006;12.102;2022-09-09T08:00:45;8.80;;;8.00;;
73840;SDS011;62183;49.006;12.102;2022-09-09T08:03:10;9.13;;;8.23;;
73840;SDS011;62183;49.006;12.102;2022-09-09T08:05:36;8.07;;;7.40;;
73840;SDS011;62183;49.006;12.102;2022-09-09T08:08:01;8.20;;;7.50;;
73840;SDS011;62183;49.006;12.102;2022-09-09T08:10:26;8.55;;;7.85;;
73840;SDS011;62183;49.006;12.102;2022-09-09T08:12:51;8.20;;;7.43;;
73840;SDS011;62183;49.006;12.102;2022-09-09T08:15:16;8.00;;;7.33;;
73840;SDS011;62183;49.006;12.102;2022-09-09T08:17:41;8.13;;;7.40;;
73840;SDS011;62183;49.006;12.102;2022-09-09T08:20:07;7.93;;;7.23;;
73840;SDS011;62183;49.006;12.102;2022-09-09T08:22:32;6.82;;;6.32;;
73840;SDS011;62183;49.006;12.102;2022-09-09T08:24:57;7.47;;;6.72;;
73840;SDS011;62183;49.006;12.102;2022-09-09T08:27:22;7.83;;;7.13;;
73840;SDS011;62183;49.006;12.102;2022-09-09T08:29:48;7.45;;;6.75;;
73840;SDS011;62183;49.006;12.102;2022-09-09T08:32:13;7.70;;;7.00;;
73840;SDS011;62183;49.006;12.102;2022-09-09T08:34:38;7.95;;;7.22;;
73840;SDS011;62183;49.006;12.102;2022-09-09T08:37:03;7.10;;;6.50;;
73840;SDS011;62183;49.006;12.102;2022-09-09T08:39:29;7.90;;;7.30;;
73840;SDS011;62183;49.006;12.102;2022-09-09T08:44:24;6.82;;;6.22;;
73840;SDS011;62183;49.006;12.102;2022-09-09T08:47:02;7.25;;;6.55;;
73840;SDS011;62183;49.006;12.102;2022-09-09T08:52:15;7.00;;;6.30;;
73840;SDS011;62183;49.006;12.102;2022-09-09T08:54:41;6.93;;;6.32;;
73840;SDS011;62183;49.006;12.102;2022-09-09T08:57:08;7.50;;;6.80;;
73840;SDS011;62183;49.006;12.102;2022-09-09T08:59:36;7.10;;;6.50;;
73840;SDS011;62183;49.006;12.102;2022-09-09T09:02:14;7.55;;;6.88;;
73840;SDS011;62183;49.006;12.102;2022-09-09T09:04:50;6.80;;;6.20;;
73840;SDS011;62183;49.006;12.102;2022-09-09T09:07:30;6.90;;;6.30;;
73840;SDS011;62183;49.006;12.102;2022-09-09T09:10:00;7.50;;;6.82;;
73840;SDS011;62183;49.006;12.102;2022-09-09T09:12:39;6.40;;;5.90;;
73840;SDS011;62183;49.006;12.102;2022-09-09T09:15:10;6.30;;;5.70;;
73840;SDS011;62183;49.006;12.102;2022-09-09T09:17:36;6.20;;;5.80;;
73840;SDS011;62183;49.006;12.102;2022-09-09T09:20:02;6.75;;;6.00;;
73840;SDS011;62183;49.006;12.102;2022-09-09T09:25:13;6.60;;;6.10;;
73840;SDS011;62183;49.006;12.102;2022-09-09T09:30:23;6.15;;;5.45;;
73840;SDS011;62183;49.006;12.102;2022-09-09T09:32:54;6.35;;;5.95;;
73840;SDS011;62183;49.006;12.102;2022-09-09T09:35:19;6.05;;;5.65;;
73840;SDS011;62183;49.006;12.102;2022-09-09T09:37:45;6.67;;;6.07;;
73840;SDS011;62183;49.006;12.102;2022-09-09T09:40:20;5.90;;;5.50;;
73840;SDS011;62183;49.006;12.102;2022-09-09T09:42:53;6.20;;;5.80;;
73840;SDS011;62183;49.006;12.102;2022-09-09T09:45:23;6.68;;;6.20;;
73840;SDS011;62183;49.006;12.102;2022-09-09T09:48:03;6.60;;;6.10;;
73840;SDS011;62183;49.006;12.102;2022-09-09T09:50:29;7.45;;;6.90;;
73840;SDS011;62183;49.006;12.102;2022-09-09T09:52:55;7.30;;;6.68;;
73840;SDS011;62183;49.006;12.102;2022-09-09T09:55:21;6.85;;;6.43;;
73840;SDS011;62183;49.006;12.102;2022-09-09T09:57:46;7.03;;;6.43;;
73840;SDS011;62183;49.006;12.102;2022-09-09T10:02:38;6.95;;;6.55;;
73840;SDS011;62183;49.006;12.102;2022-09-09T10:07:41;8.07;;;7.43;;
73840;SDS011;62183;49.006;12.102;2022-09-09T10:10:08;8.05;;;7.45;;
73840;SDS011;62183;49.006;12.102;2022-09-09T10:12:57;7.75;;;7.20;;
73840;SDS011;62183;49.006;12.102;2022-09-09T10:20:40;8.25;;;7.75;;
73840;SDS011;62183;49.006;12.102;2022-09-09T10:25:35;8.60;;;8.10;;
73840;SDS011;62183;49.006;12.102;2022-09-09T10:33:37;8.05;;;7.55;;
73840;SDS011;62183;49.006;12.102;2022-09-09T10:36:17;8.68;;;7.90;;
73840;SDS011;62183;49.006;12.102;2022-09-09T10:49:05;6.97;;;6.68;;
73840;SDS011;62183;49.006;12.102;2022-09-09T10:54:28;7.50;;;7.00;;
73840;SDS011;62183;49.006;12.102;2022-09-09T10:57:00;6.65;;;6.35;;
73840;SDS011;62183;49.006;12.102;2022-09-09T10:59:29;7.05;;;6.65;;
73840;SDS011;62183;49.006;12.102;2022-09-09T11:01:58;7.00;;;6.57;;
73840;SDS011;62183;49.006;12.102;2022-09-09T11:04:38;7.50;;;7.00;;
73840;SDS011;62183;49.006;12.102;2022-09-09T11:07:12;7.07;;;6.68;;
73840;SDS011;62183;49.006;12.102;2022-09-09T11:09:41;7.38;;;6.82;;
73840;SDS011;62183;49.006;12.102;2022-09-09T11:12:09;6.90;;;6.50;;
73840;SDS011;62183;49.006;12.102;2022-09-09T11:14:39;7.75;;;7.15;;
73840;SDS011;62183;49.006;12.102;2022-09-09T11:17:12;7.40;;;6.90;;
73840;SDS011;62183;49.006;12.102;2022-09-09T11:19:40;7.03;;;6.63;;
73840;SDS011;62183;49.006;12.102;2022-09-09T11:24:40;7.00;;;6.50;;
73840;SDS011;62183;49.006;12.102;2022-09-09T11:27:11;6.90;;;6.50;;
73840;SDS011;62183;49.006;12.102;2022-09-09T11:34:47;6.63;;;6.22;;
73840;SDS011;62183;49.006;12.102;2022-09-09T11:40:04;6.43;;;6.10;;
73840;SDS011;62183;49.006;12.102;2022-09-09T11:42:33;6.35;;;6.05;;
73840;SDS011;62183;49.006;12.102;2022-09-09T11:45:08;6.70;;;6.30;;
73840;SDS011;62183;49.006;12.102;2022-09-09T11:47:34;6.55;;;6.15;;
73840;SDS011;62183;49.006;12.102;2022-09-09T11:50:09;7.33;;;6.73;;
73840;SDS011;62183;49.006;12.102;2022-09-09T11:52:39;6.88;;;6.38;;
73840;SDS011;62183;49.006;12.102;2022-09-09T11:55:08;6.60;;;6.20;;
73840;SDS011;62183;49.006;12.102;2022-09-09T11:57:35;6.78;;;6.38;;
73840;SDS011;62183;49.006;12.102;2022-09-09T12:00:01;6.50;;;6.10;;
73840;SDS011;62183;49.006;12.102;2022-09-09T12:02:27;7.10;;;6.70;;
73840;SDS011;62183;49.006;12.102;2022-09-09T12:04:57;7.00;;;6.50;;
73840;SDS011;62183;49.006;12.102;2022-09-09T12:07:25;7.07;;;6.68;;
73840;SDS011;62183;49.006;12.102;2022-09-09T12:09:52;6.70;;;6.30;;
73840;SDS011;62183;49.006;12.102;2022-09-09T12:12:22;7.00;;;6.50;;
73840;SDS011;62183;49.006;12.102;2022-09-09T12:14:55;6.95;;;6.35;;
73840;SDS011;62183;49.006;12.102;2022-09-09T12:17:24;6.68;;;6.30;;
73840;SDS011;62183;49.006;12.102;2022-09-09T12:20:06;6.80;;;6.40;;
73840;SDS011;62183;49.006;12.102;2022-09-09T12:28:02;6.60;;;6.20;;
73840;SDS011;62183;49.006;12.102;2022-09-09T12:30:38;6.75;;;6.18;;
73840;SDS011;62183;49.006;12.102;2022-09-09T12:33:11;6.25;;;5.80;;
73840;SDS011;62183;49.006;12.102;2022-09-09T12:35:37;6.18;;;5.88;;
73840;SDS011;62183;49.006;12.102;2022-09-09T12:38:02;6.30;;;5.90;;
73840;SDS011;62183;49.006;12.102;2022-09-09T12:40:32;6.10;;;5.80;;
73840;SDS011;62183;49.006;12.102;2022-09-09T12:42:58;5.93;;;5.60;;
73840;SDS011;62183;49.006;12.102;2022-09-09T12:45:24;6.20;;;5.73;;
73840;SDS011;62183;49.006;12.102;2022-09-09T12:50:16;5.93;;;5.63;;
73840;SDS011;62183;49.006;12.102;2022-09-09T12:52:42;6.25;;;5.70;;
73840;SDS011;62183;49.006;12.102;2022-09-09T12:55:07;5.80;;;5.50;;
73840;SDS011;62183;49.006;12.102;2022-09-09T12:57:40;6.28;;;5.88;;
73840;SDS011;62183;49.006;12.102;2022-09-09T13:00:11;6.50;;;5.90;;
73840;SDS011;62183;49.006;12.102;2022-09-09T13:02:36;6.20;;;5.78;;
73840;SDS011;62183;49.006;12.102;2022-09-09T13:05:17;6.07;;;5.47;;
73840;SDS011;62183;49.006;12.102;2022-09-09T13:07:43;5.80;;;5.50;;
73840;SDS011;62183;49.006;12.102;2022-09-09T13:10:20;6.17;;;5.80;;
73840;SDS011;62183;49.006;12.102;2022-09-09T13:12:47;6.20;;;5.80;;
73840;SDS011;62183;49.006;12.102;2022-09-09T13:15:14;6.67;;;6.07;;
73840;SDS011;62183;49.006;12.102;2022-09-09T13:17:41;6.68;;;6.28;;
73840;SDS011;62183;49.006;12.102;2022-09-09T13:20:06;6.60;;;6.10;;
73840;SDS011;62183;49.006;12.102;2022-09-09T13:22:35;6.28;;;5.88;;
73840;SDS011;62183;49.006;12.102;2022-09-09T13:27:33;6.50;;;6.10;;
73840;SDS011;62183;49.006;12.102;2022-09-09T13:29:58;6.60;;;6.20;;
73840;SDS011;62183;49.006;12.102;2022-09-09T13:32:24;6.75;;;6.32;;
73840;SDS011;62183;49.006;12.102;2022-09-09T13:34:54;6.85;;;6.45;;
73840;SDS011;62183;49.006;12.102;2022-09-09T13:39:50;6.40;;;6.10;;
73840;SDS011;62183;49.006;12.102;2022-09-09T13:42:26;6.38;;;6.03;;
73840;SDS011;62183;49.006;12.102;2022-09-09T13:44:52;6.85;;;6.28;;
73840;SDS011;62183;49.006;12.102;2022-09-09T13:47:18;6.60;;;6.20;;
73840;SDS011;62183;49.006;12.102;2022-09-09T13:49:43;6.32;;;6.00;;
73840;SDS011;62183;49.006;12.102;2022-09-09T13:52:13;6.80;;;6.27;;
73840;SDS011;62183;49.006;12.102;2022-09-09T13:54:39;6.10;;;5.80;;
73840;SDS011;62183;49.006;12.102;2022-09-09T13:57:04;6.40;;;6.10;;
73840;SDS011;62183;49.006;12.102;2022-09-09T13:59:29;6.20;;;5.80;;
73840;SDS011;62183;49.006;12.102;2022-09-09T14:02:19;6.20;;;5.88;;
73840;SDS011;62183;49.006;12.102;2022-09-09T14:10:12;6.80;;;6.40;;
73840;SDS011;62183;49.006;12.102;2022-09-09T14:12:56;7.93;;;7.10;;
73840;SDS011;62183;49.006;12.102;2022-09-09T14:15:42;7.60;;;7.20;;
73840;SDS011;62183;49.006;12.102;2022-09-09T14:18:27;7.57;;;7.07;;
73840;SDS011;62183;49.006;12.102;2022-09-09T14:21:13;7.43;;;7.03;;
73840;SDS011;62183;49.006;12.102;2022-09-09T14:23:58;7.25;;;6.85;;
73840;SDS011;62183;49.006;12.102;2022-09-09T14:26:44;7.40;;;6.93;;
73840;SDS011;62183;49.006;12.102;2022-09-09T14:29:29;7.90;;;7.43;;
73840;SDS011;62183;49.006;12.102;2022-09-09T14:32:15;7.30;;;6.80;;
73840;SDS011;62183;49.006;12.102;2022-09-09T14:34:40;7.20;;;6.80;;
73840;SDS011;62183;49.006;12.102;2022-09-09T14:37:05;7.47;;;6.90;;
73840;SDS011;62183;49.006;12.102;2022-09-09T14:39:30;6.90;;;6.50;;
73840;SDS011;62183;49.006;12.102;2022-09-09T14:41:56;6.97;;;6.47;;
73840;SDS011;62183;49.006;12.102;2022-09-09T14:44:21;6.63;;;6.23;;
73840;SDS011;62183;49.006;12.102;2022-09-09T14:46:46;7.10;;;6.60;;
73840;SDS011;62183;49.006;12.102;2022-09-09T14:49:11;6.83;;;6.40;;
73840;SDS011;62183;49.006;12.102;2022-09-09T14:51:36;7.13;;;6.63;;
73840;SDS011;62183;49.006;12.102;2022-09-09T14:54:02;6.90;;;6.50;;
73840;SDS011;62183;49.006;12.102;2022-09-09T14:56:28;7.30;;;6.70;;
73840;SDS011;62183;49.006;12.102;2022-09-09T14:58:54;6.63;;;6.32;;
73840;SDS011;62183;49.006;12.102;2022-09-09T15:01:19;6.88;;;6.40;;
73840;SDS011;62183;49.006;12.102;2022-09-09T15:03:52;6.60;;;6.25;;
73840;SDS011;62183;49.006;12.102;2022-09-09T15:06:17;6.80;;;6.50;;
73840;SDS011;62183;49.006;12.102;2022-09-09T15:08:43;6.97;;;6.47;;
73840;SDS011;62183;49.006;12.102;2022-09-09T15:11:09;6.93;;;6.30;;
73840;SDS011;62183;49.006;12.102;2022-09-09T15:13:34;6.47;;;6.07;;
73840;SDS011;62183;49.006;12.102;2022-09-09T15:16:07;6.53;;;6.13;;
73840;SDS011;62183;49.006;12.102;2022-09-09T15:18:33;6.70;;;6.30;;
73840;SDS011;62183;49.006;12.102;2022-09-09T15:20:59;6.22;;;5.90;;
73840;SDS011;62183;49.006;12.102;2022-09-09T15:23:24;6.75;;;6.35;;
73840;SDS011;62183;49.006;12.102;2022-09-09T15:25:50;6.30;;;5.90;;
73840;SDS011;62183;49.006;12.102;2022-09-09T15:28:15;6.30;;;5.90;;
73840;SDS011;62183;49.006;12.102;2022-09-09T15:30:40;6.00;;;5.70;;
73840;SDS011;62183;49.006;12.102;2022-09-09T15:33:08;6.27;;;5.87;;
73840;SDS011;62183;49.006;12.102;2022-09-09T15:35:34;6.03;;;5.63;;
73840;SDS011;62183;49.006;12.102;2022-09-09T15:38:01;5.90;;;5.60;;
73840;SDS011;62183;49.006;12.102;2022-09-09T15:40:26;5.80;;;5.50;;
73840;SDS011;62183;49.006;12.102;2022-09-09T15:42:52;5.67;;;5.37;;
73840;SDS011;62183;49.006;12.102;2022-09-09T15:51:28;6.30;;;5.90;;
73840;SDS011;62183;49.006;12.102;2022-09-09T15:53:57;6.23;;;5.90;;
73840;SDS011;62183;49.006;12.102;2022-09-09T15:56:23;6.05;;;5.75;;
73840;SDS011;62183;49.006;12.102;2022-09-09T15:58:49;6.72;;;6.10;;
73840;SDS011;62183;49.006;12.102;2022-09-09T16:01:14;6.10;;;5.80;;
73840;SDS011;62183;49.006;12.102;2022-09-09T16:03:40;6.30;;;6.00;;
73840;SDS011;62183;49.006;12.102;2022-09-09T16:06:06;6.20;;;5.90;;
73840;SDS011;62183;49.006;12.102;2022-09-09T16:08:32;6.43;;;6.03;;
73840;SDS011;62183;49.006;12.102;2022-09-09T16:11:03;6.20;;;5.90;;
73840;SDS011;62183;49.006;12.102;2022-09-09T16:13:28;6.05;;;5.75;;
73840;SDS011;62183;49.006;12.102;2022-09-09T16:15:57;6.22;;;5.93;;
73840;SDS011;62183;49.006;12.102;2022-09-09T16:18:22;6.07;;;5.67;;
73840;SDS011;62183;49.006;12.102;2022-09-09T16:20:54;5.93;;;5.63;;
73840;SDS011;62183;49.006;12.102;2022-09-09T16:23:19;6.50;;;6.00;;
73840;SDS011;62183;49.006;12.102;2022-09-09T16:25:52;6.00;;;5.70;;
73840;SDS011;62183;49.006;12.102;2022-09-09T16:28:17;5.93;;;5.63;;
73840;SDS011;62183;49.006;12.102;2022-09-09T16:30:42;6.10;;;5.70;;